sensor_id;sensor_type;location;lat;lon;timestamp;P1;durP1;ratioP1;P2;durP2;ratioP2
18159;SDS011;9205;52.032;4.314;2022-12-18T00:00:06;34.93;;;12.07;;
18159;SDS011;9205;52.032;4.314;2022-12-18T00:02:42;47.63;;;12.97;;
18159;SDS011;9205;52.032;4.314;2022-12-18T00:05:10;41.03;;;11.53;;
18159;SDS011;9205;52.032;4.314;2022-12-18T00:07:37;34.50;;;11.43;;
18159;SDS011;9205;52.032;4.314;2022-12-18T00:10:05;34.70;;;11.07;;
18159;SDS011;9205;52.032;4.314;2022-12-18T00:12:34;37.37;;;12.67;;
18159;SDS011;9205;52.032;4.314;2022-12-18T00:15:03;40.60;;;12.40;;
18159;SDS011;9205;52.032;4.314;2022-12-18T00:17:32;41.20;;;11.67;;
18159;SDS011;9205;52.032;4.314;2022-12-18T00:20:00;30.83;;;10.37;;
18159;SDS011;9205;52.032;4.314;2022-12-18T00:22:28;31.07;;;10.87;;
18159;SDS011;9205;52.032;4.314;2022-12-18T00:24:56;30.70;;;11.50;;
18159;SDS011;9205;52.032;4.314;2022-12-18T00:27:24;29.17;;;10.13;;
18159;SDS011;9205;52.032;4.314;2022-12-18T00:29:51;27.57;;;11.33;;
18159;SDS011;9205;52.032;4.314;2022-12-18T00:32:20;38.93;;;11.20;;
18159;SDS011;9205;52.032;4.314;2022-12-18T00:34:47;33.90;;;11.70;;
18159;SDS011;9205;52.032;4.314;2022-12-18T00:37:15;23.70;;;10.27;;
18159;SDS011;9205;52.032;4.314;2022-12-18T00:39:42;36.87;;;10.93;;
18159;SDS011;9205;52.032;4.314;2022-12-18T00:42:10;38.30;;;13.10;;
18159;SDS011;9205;52.032;4.314;2022-12-18T00:44:54;31.37;;;11.80;;
18159;SDS011;9205;52.032;4.314;2022-12-18T00:47:23;30.50;;;11.97;;
18159;SDS011;9205;52.032;4.314;2022-12-18T00:49:50;30.93;;;10.23;;
18159;SDS011;9205;52.032;4.314;2022-12-18T00:52:18;21.93;;;8.80;;
18159;SDS011;9205;52.032;4.314;2022-12-18T00:54:45;42.20;;;12.00;;
18159;SDS011;9205;52.032;4.314;2022-12-18T00:57:13;33.67;;;13.33;;
18159;SDS011;9205;52.032;4.314;2022-12-18T00:59:41;36.77;;;12.17;;
18159;SDS011;9205;52.032;4.314;2022-12-18T01:02:10;36.93;;;12.03;;
18159;SDS011;9205;52.032;4.314;2022-12-18T01:04:38;37.47;;;13.20;;
18159;SDS011;9205;52.032;4.314;2022-12-18T01:07:06;33.63;;;10.97;;
18159;SDS011;9205;52.032;4.314;2022-12-18T01:09:33;32.33;;;12.03;;
18159;SDS011;9205;52.032;4.314;2022-12-18T01:12:01;30.70;;;11.37;;
18159;SDS011;9205;52.032;4.314;2022-12-18T01:14:29;29.73;;;10.20;;
18159;SDS011;9205;52.032;4.314;2022-12-18T01:16:58;36.93;;;13.73;;
18159;SDS011;9205;52.032;4.314;2022-12-18T01:19:27;37.77;;;12.77;;
18159;SDS011;9205;52.032;4.314;2022-12-18T01:21:56;34.17;;;11.10;;
18159;SDS011;9205;52.032;4.314;2022-12-18T01:24:24;31.57;;;11.37;;
18159;SDS011;9205;52.032;4.314;2022-12-18T01:26:52;26.53;;;10.27;;
18159;SDS011;9205;52.032;4.314;2022-12-18T01:29:19;35.97;;;11.37;;
18159;SDS011;9205;52.032;4.314;2022-12-18T01:31:46;33.30;;;11.13;;
18159;SDS011;9205;52.032;4.314;2022-12-18T01:34:14;22.10;;;9.23;;
18159;SDS011;9205;52.032;4.314;2022-12-18T01:36:41;36.57;;;12.07;;
18159;SDS011;9205;52.032;4.314;2022-12-18T01:39:11;30.37;;;10.27;;
18159;SDS011;9205;52.032;4.314;2022-12-18T01:41:41;26.07;;;9.77;;
18159;SDS011;9205;52.032;4.314;2022-12-18T01:47:30;29.73;;;11.30;;
18159;SDS011;9205;52.032;4.314;2022-12-18T01:50:08;31.93;;;11.87;;
18159;SDS011;9205;52.032;4.314;2022-12-18T01:52:39;25.20;;;9.43;;
18159;SDS011;9205;52.032;4.314;2022-12-18T01:55:11;28.50;;;11.00;;
18159;SDS011;9205;52.032;4.314;2022-12-18T01:57:40;28.33;;;10.57;;
18159;SDS011;9205;52.032;4.314;2022-12-18T02:00:10;29.27;;;10.27;;
18159;SDS011;9205;52.032;4.314;2022-12-18T02:02:41;25.27;;;9.47;;
18159;SDS011;9205;52.032;4.314;2022-12-18T02:05:12;27.37;;;10.73;;
18159;SDS011;9205;52.032;4.314;2022-12-18T02:07:48;23.00;;;9.20;;
18159;SDS011;9205;52.032;4.314;2022-12-18T02:10:36;26.40;;;9.33;;
18159;SDS011;9205;52.032;4.314;2022-12-18T02:13:14;25.50;;;9.70;;
18159;SDS011;9205;52.032;4.314;2022-12-18T02:15:51;35.13;;;9.77;;
18159;SDS011;9205;52.032;4.314;2022-12-18T02:18:27;29.60;;;9.57;;
18159;SDS011;9205;52.032;4.314;2022-12-18T02:21:04;39.60;;;11.93;;
18159;SDS011;9205;52.032;4.314;2022-12-18T02:23:47;28.67;;;10.03;;
18159;SDS011;9205;52.032;4.314;2022-12-18T02:26:30;32.80;;;11.03;;
18159;SDS011;9205;52.032;4.314;2022-12-18T02:29:05;29.00;;;12.80;;
18159;SDS011;9205;52.032;4.314;2022-12-18T02:31:39;24.37;;;9.17;;
18159;SDS011;9205;52.032;4.314;2022-12-18T02:34:15;35.17;;;10.83;;
18159;SDS011;9205;52.032;4.314;2022-12-18T02:36:45;30.57;;;9.73;;
18159;SDS011;9205;52.032;4.314;2022-12-18T02:39:16;40.97;;;11.97;;
18159;SDS011;9205;52.032;4.314;2022-12-18T02:42:02;37.73;;;12.00;;
18159;SDS011;9205;52.032;4.314;2022-12-18T02:44:33;31.93;;;9.83;;
18159;SDS011;9205;52.032;4.314;2022-12-18T02:47:03;31.43;;;12.60;;
18159;SDS011;9205;52.032;4.314;2022-12-18T02:49:34;30.30;;;10.03;;
18159;SDS011;9205;52.032;4.314;2022-12-18T02:52:28;24.50;;;8.60;;
18159;SDS011;9205;52.032;4.314;2022-12-18T02:55:15;33.83;;;10.70;;
18159;SDS011;9205;52.032;4.314;2022-12-18T02:58:03;30.50;;;9.47;;
18159;SDS011;9205;52.032;4.314;2022-12-18T03:00:42;26.90;;;10.13;;
18159;SDS011;9205;52.032;4.314;2022-12-18T03:03:19;26.73;;;10.00;;
18159;SDS011;9205;52.032;4.314;2022-12-18T03:05:58;24.30;;;9.73;;
18159;SDS011;9205;52.032;4.314;2022-12-18T03:08:36;22.83;;;9.13;;
18159;SDS011;9205;52.032;4.314;2022-12-18T03:11:09;37.27;;;10.40;;
18159;SDS011;9205;52.032;4.314;2022-12-18T03:13:43;35.43;;;10.87;;
18159;SDS011;9205;52.032;4.314;2022-12-18T03:16:18;27.17;;;10.37;;
18159;SDS011;9205;52.032;4.314;2022-12-18T03:18:53;26.53;;;9.87;;
18159;SDS011;9205;52.032;4.314;2022-12-18T03:21:28;33.87;;;10.43;;
18159;SDS011;9205;52.032;4.314;2022-12-18T03:24:03;32.63;;;9.47;;
18159;SDS011;9205;52.032;4.314;2022-12-18T03:26:36;27.13;;;9.93;;
18159;SDS011;9205;52.032;4.314;2022-12-18T03:29:16;28.57;;;10.07;;
18159;SDS011;9205;52.032;4.314;2022-12-18T03:31:49;30.93;;;11.33;;
18159;SDS011;9205;52.032;4.314;2022-12-18T03:34:26;25.53;;;10.23;;
18159;SDS011;9205;52.032;4.314;2022-12-18T03:37:02;31.87;;;10.80;;
18159;SDS011;9205;52.032;4.314;2022-12-18T03:39:31;31.10;;;10.43;;
18159;SDS011;9205;52.032;4.314;2022-12-18T03:42:04;33.00;;;11.53;;
18159;SDS011;9205;52.032;4.314;2022-12-18T03:44:49;27.50;;;9.40;;
18159;SDS011;9205;52.032;4.314;2022-12-18T03:47:26;30.07;;;10.30;;
18159;SDS011;9205;52.032;4.314;2022-12-18T03:50:03;26.53;;;8.77;;
18159;SDS011;9205;52.032;4.314;2022-12-18T03:52:44;27.57;;;9.97;;
18159;SDS011;9205;52.032;4.314;2022-12-18T03:55:19;26.83;;;10.47;;
18159;SDS011;9205;52.032;4.314;2022-12-18T03:57:56;24.60;;;9.53;;
18159;SDS011;9205;52.032;4.314;2022-12-18T04:00:31;27.30;;;10.40;;
18159;SDS011;9205;52.032;4.314;2022-12-18T04:03:06;27.87;;;10.17;;
18159;SDS011;9205;52.032;4.314;2022-12-18T04:05:43;28.80;;;9.77;;
18159;SDS011;9205;52.032;4.314;2022-12-18T04:08:16;30.00;;;10.87;;
18159;SDS011;9205;52.032;4.314;2022-12-18T04:10:54;22.20;;;8.47;;
18159;SDS011;9205;52.032;4.314;2022-12-18T04:13:22;26.23;;;10.30;;
18159;SDS011;9205;52.032;4.314;2022-12-18T04:15:52;33.70;;;10.60;;
18159;SDS011;9205;52.032;4.314;2022-12-18T04:18:22;28.47;;;9.10;;
18159;SDS011;9205;52.032;4.314;2022-12-18T04:20:49;30.03;;;10.23;;
18159;SDS011;9205;52.032;4.314;2022-12-18T04:23:17;37.63;;;10.97;;
18159;SDS011;9205;52.032;4.314;2022-12-18T04:25:45;26.43;;;9.77;;
18159;SDS011;9205;52.032;4.314;2022-12-18T04:28:21;22.97;;;9.43;;
18159;SDS011;9205;52.032;4.314;2022-12-18T04:30:48;25.50;;;10.23;;
18159;SDS011;9205;52.032;4.314;2022-12-18T04:33:17;22.87;;;9.27;;
18159;SDS011;9205;52.032;4.314;2022-12-18T04:35:45;24.90;;;9.30;;
18159;SDS011;9205;52.032;4.314;2022-12-18T04:38:13;26.27;;;9.97;;
18159;SDS011;9205;52.032;4.314;2022-12-18T04:40:41;23.47;;;8.93;;
18159;SDS011;9205;52.032;4.314;2022-12-18T04:43:18;21.73;;;8.77;;
18159;SDS011;9205;52.032;4.314;2022-12-18T04:45:46;26.60;;;9.27;;
18159;SDS011;9205;52.032;4.314;2022-12-18T04:48:14;26.60;;;10.17;;
18159;SDS011;9205;52.032;4.314;2022-12-18T04:50:42;26.77;;;10.23;;
18159;SDS011;9205;52.032;4.314;2022-12-18T04:53:10;22.37;;;8.57;;
18159;SDS011;9205;52.032;4.314;2022-12-18T04:55:37;25.57;;;8.73;;
18159;SDS011;9205;52.032;4.314;2022-12-18T04:58:06;22.73;;;8.83;;
18159;SDS011;9205;52.032;4.314;2022-12-18T05:00:34;21.50;;;8.50;;
18159;SDS011;9205;52.032;4.314;2022-12-18T05:03:01;26.20;;;9.53;;
18159;SDS011;9205;52.032;4.314;2022-12-18T05:05:29;25.33;;;9.83;;
18159;SDS011;9205;52.032;4.314;2022-12-18T05:07:58;24.00;;;8.83;;
18159;SDS011;9205;52.032;4.314;2022-12-18T05:10:28;25.77;;;8.37;;
18159;SDS011;9205;52.032;4.314;2022-12-18T05:12:58;26.00;;;10.53;;
18159;SDS011;9205;52.032;4.314;2022-12-18T05:15:26;29.33;;;9.93;;
18159;SDS011;9205;52.032;4.314;2022-12-18T05:17:57;22.60;;;7.87;;
18159;SDS011;9205;52.032;4.314;2022-12-18T05:20:26;26.13;;;8.90;;
18159;SDS011;9205;52.032;4.314;2022-12-18T05:22:55;23.43;;;9.87;;
18159;SDS011;9205;52.032;4.314;2022-12-18T05:25:24;18.77;;;7.73;;
18159;SDS011;9205;52.032;4.314;2022-12-18T05:27:51;20.17;;;9.27;;
18159;SDS011;9205;52.032;4.314;2022-12-18T05:30:19;15.43;;;7.20;;
18159;SDS011;9205;52.032;4.314;2022-12-18T05:32:47;21.57;;;8.33;;
18159;SDS011;9205;52.032;4.314;2022-12-18T05:35:15;20.77;;;8.33;;
18159;SDS011;9205;52.032;4.314;2022-12-18T05:37:42;20.57;;;8.23;;
18159;SDS011;9205;52.032;4.314;2022-12-18T05:40:11;29.07;;;9.60;;
18159;SDS011;9205;52.032;4.314;2022-12-18T05:42:39;24.97;;;8.63;;
18159;SDS011;9205;52.032;4.314;2022-12-18T05:45:07;22.57;;;9.00;;
18159;SDS011;9205;52.032;4.314;2022-12-18T05:47:35;23.60;;;9.30;;
18159;SDS011;9205;52.032;4.314;2022-12-18T05:50:03;18.20;;;6.87;;
18159;SDS011;9205;52.032;4.314;2022-12-18T05:52:32;22.73;;;8.13;;
18159;SDS011;9205;52.032;4.314;2022-12-18T05:54:59;17.53;;;8.57;;
18159;SDS011;9205;52.032;4.314;2022-12-18T05:57:28;26.23;;;8.30;;
18159;SDS011;9205;52.032;4.314;2022-12-18T05:59:56;23.50;;;8.70;;
18159;SDS011;9205;52.032;4.314;2022-12-18T06:02:23;29.97;;;10.40;;
18159;SDS011;9205;52.032;4.314;2022-12-18T06:04:51;25.00;;;9.30;;
18159;SDS011;9205;52.032;4.314;2022-12-18T06:07:18;29.63;;;9.67;;
18159;SDS011;9205;52.032;4.314;2022-12-18T06:09:46;18.43;;;9.23;;
18159;SDS011;9205;52.032;4.314;2022-12-18T06:12:16;22.57;;;7.83;;
18159;SDS011;9205;52.032;4.314;2022-12-18T06:14:45;30.57;;;9.57;;
18159;SDS011;9205;52.032;4.314;2022-12-18T06:17:13;19.10;;;8.40;;
18159;SDS011;9205;52.032;4.314;2022-12-18T06:19:40;18.97;;;8.23;;
18159;SDS011;9205;52.032;4.314;2022-12-18T06:22:08;22.60;;;8.50;;
18159;SDS011;9205;52.032;4.314;2022-12-18T06:24:35;23.70;;;7.87;;
18159;SDS011;9205;52.032;4.314;2022-12-18T06:27:03;19.53;;;8.97;;
18159;SDS011;9205;52.032;4.314;2022-12-18T06:29:30;20.07;;;7.77;;
18159;SDS011;9205;52.032;4.314;2022-12-18T06:32:03;21.90;;;9.03;;
18159;SDS011;9205;52.032;4.314;2022-12-18T06:34:33;18.13;;;7.00;;
18159;SDS011;9205;52.032;4.314;2022-12-18T06:37:03;18.60;;;7.90;;
18159;SDS011;9205;52.032;4.314;2022-12-18T06:39:31;22.70;;;8.50;;
18159;SDS011;9205;52.032;4.314;2022-12-18T06:41:58;25.60;;;7.50;;
18159;SDS011;9205;52.032;4.314;2022-12-18T06:44:26;16.60;;;6.87;;
18159;SDS011;9205;52.032;4.314;2022-12-18T06:46:54;20.47;;;8.33;;
18159;SDS011;9205;52.032;4.314;2022-12-18T06:49:24;20.30;;;7.60;;
18159;SDS011;9205;52.032;4.314;2022-12-18T06:51:52;24.70;;;8.63;;
18159;SDS011;9205;52.032;4.314;2022-12-18T06:54:19;26.10;;;10.30;;
18159;SDS011;9205;52.032;4.314;2022-12-18T06:56:47;17.83;;;6.63;;
18159;SDS011;9205;52.032;4.314;2022-12-18T06:59:15;15.40;;;7.03;;
18159;SDS011;9205;52.032;4.314;2022-12-18T07:01:43;16.00;;;7.33;;
18159;SDS011;9205;52.032;4.314;2022-12-18T07:04:10;22.10;;;7.53;;
18159;SDS011;9205;52.032;4.314;2022-12-18T07:06:40;20.97;;;8.57;;
18159;SDS011;9205;52.032;4.314;2022-12-18T07:09:08;21.57;;;8.43;;
18159;SDS011;9205;52.032;4.314;2022-12-18T07:11:38;19.07;;;7.43;;
18159;SDS011;9205;52.032;4.314;2022-12-18T07:14:06;22.47;;;8.57;;
18159;SDS011;9205;52.032;4.314;2022-12-18T07:16:33;17.00;;;7.70;;
18159;SDS011;9205;52.032;4.314;2022-12-18T07:19:00;24.80;;;7.33;;
18159;SDS011;9205;52.032;4.314;2022-12-18T07:21:28;24.30;;;8.63;;
18159;SDS011;9205;52.032;4.314;2022-12-18T07:23:58;19.97;;;7.57;;
18159;SDS011;9205;52.032;4.314;2022-12-18T07:26:26;18.50;;;7.60;;
18159;SDS011;9205;52.032;4.314;2022-12-18T07:28:54;17.97;;;7.73;;
18159;SDS011;9205;52.032;4.314;2022-12-18T07:31:24;19.53;;;8.73;;
18159;SDS011;9205;52.032;4.314;2022-12-18T07:33:52;23.00;;;8.50;;
18159;SDS011;9205;52.032;4.314;2022-12-18T07:36:20;17.20;;;7.00;;
18159;SDS011;9205;52.032;4.314;2022-12-18T07:38:47;20.83;;;7.70;;
18159;SDS011;9205;52.032;4.314;2022-12-18T07:41:19;20.63;;;7.80;;
18159;SDS011;9205;52.032;4.314;2022-12-18T07:43:48;25.17;;;8.60;;
18159;SDS011;9205;52.032;4.314;2022-12-18T07:46:16;14.23;;;6.37;;
18159;SDS011;9205;52.032;4.314;2022-12-18T07:48:45;17.33;;;6.30;;
18159;SDS011;9205;52.032;4.314;2022-12-18T07:51:13;18.53;;;7.13;;
18159;SDS011;9205;52.032;4.314;2022-12-18T07:53:41;15.97;;;7.00;;
18159;SDS011;9205;52.032;4.314;2022-12-18T07:56:12;17.83;;;7.37;;
18159;SDS011;9205;52.032;4.314;2022-12-18T07:58:41;13.80;;;7.37;;
18159;SDS011;9205;52.032;4.314;2022-12-18T08:01:13;15.83;;;7.27;;
18159;SDS011;9205;52.032;4.314;2022-12-18T08:03:42;20.40;;;8.07;;
18159;SDS011;9205;52.032;4.314;2022-12-18T08:06:10;15.57;;;5.77;;
18159;SDS011;9205;52.032;4.314;2022-12-18T08:08:37;18.30;;;7.10;;
18159;SDS011;9205;52.032;4.314;2022-12-18T08:11:06;13.63;;;6.47;;
18159;SDS011;9205;52.032;4.314;2022-12-18T08:13:34;17.17;;;6.70;;
18159;SDS011;9205;52.032;4.314;2022-12-18T08:16:03;14.03;;;7.27;;
18159;SDS011;9205;52.032;4.314;2022-12-18T08:18:34;13.13;;;6.27;;
18159;SDS011;9205;52.032;4.314;2022-12-18T08:21:08;16.03;;;6.03;;
18159;SDS011;9205;52.032;4.314;2022-12-18T08:23:37;12.80;;;6.27;;
18159;SDS011;9205;52.032;4.314;2022-12-18T08:26:05;16.57;;;6.40;;
18159;SDS011;9205;52.032;4.314;2022-12-18T08:28:32;17.07;;;6.67;;
18159;SDS011;9205;52.032;4.314;2022-12-18T08:31:00;13.17;;;7.30;;
18159;SDS011;9205;52.032;4.314;2022-12-18T08:33:29;13.67;;;7.20;;
18159;SDS011;9205;52.032;4.314;2022-12-18T08:35:58;17.47;;;6.57;;
18159;SDS011;9205;52.032;4.314;2022-12-18T08:38:26;10.50;;;5.67;;
18159;SDS011;9205;52.032;4.314;2022-12-18T08:40:57;17.13;;;7.23;;
18159;SDS011;9205;52.032;4.314;2022-12-18T08:43:26;12.93;;;6.17;;
18159;SDS011;9205;52.032;4.314;2022-12-18T08:46:15;16.67;;;5.63;;
18159;SDS011;9205;52.032;4.314;2022-12-18T08:48:44;18.27;;;7.07;;
18159;SDS011;9205;52.032;4.314;2022-12-18T08:51:12;17.13;;;7.10;;
18159;SDS011;9205;52.032;4.314;2022-12-18T08:53:45;14.90;;;6.47;;
18159;SDS011;9205;52.032;4.314;2022-12-18T08:56:13;11.90;;;5.90;;
18159;SDS011;9205;52.032;4.314;2022-12-18T08:58:43;16.53;;;5.97;;
18159;SDS011;9205;52.032;4.314;2022-12-18T09:01:19;16.37;;;6.80;;
18159;SDS011;9205;52.032;4.314;2022-12-18T09:03:47;12.50;;;6.10;;
18159;SDS011;9205;52.032;4.314;2022-12-18T09:06:16;13.43;;;6.77;;
18159;SDS011;9205;52.032;4.314;2022-12-18T09:08:48;14.67;;;6.93;;
18159;SDS011;9205;52.032;4.314;2022-12-18T09:11:20;12.60;;;6.47;;
18159;SDS011;9205;52.032;4.314;2022-12-18T09:13:53;12.30;;;6.17;;
18159;SDS011;9205;52.032;4.314;2022-12-18T09:16:24;16.93;;;7.60;;
18159;SDS011;9205;52.032;4.314;2022-12-18T09:18:54;15.33;;;5.90;;
18159;SDS011;9205;52.032;4.314;2022-12-18T09:21:25;14.77;;;7.50;;
18159;SDS011;9205;52.032;4.314;2022-12-18T09:23:55;14.93;;;6.40;;
18159;SDS011;9205;52.032;4.314;2022-12-18T09:26:24;15.20;;;7.13;;
18159;SDS011;9205;52.032;4.314;2022-12-18T09:28:53;14.77;;;6.67;;
18159;SDS011;9205;52.032;4.314;2022-12-18T09:31:23;14.83;;;6.07;;
18159;SDS011;9205;52.032;4.314;2022-12-18T09:33:51;14.40;;;6.40;;
18159;SDS011;9205;52.032;4.314;2022-12-18T09:36:20;14.23;;;6.63;;
18159;SDS011;9205;52.032;4.314;2022-12-18T09:38:48;10.67;;;6.30;;
18159;SDS011;9205;52.032;4.314;2022-12-18T09:41:19;10.37;;;5.93;;
18159;SDS011;9205;52.032;4.314;2022-12-18T09:44:11;9.67;;;5.20;;
18159;SDS011;9205;52.032;4.314;2022-12-18T09:46:52;14.13;;;6.47;;
18159;SDS011;9205;52.032;4.314;2022-12-18T09:49:30;15.13;;;5.80;;
18159;SDS011;9205;52.032;4.314;2022-12-18T09:52:02;13.57;;;5.87;;
18159;SDS011;9205;52.032;4.314;2022-12-18T09:54:43;13.07;;;6.07;;
18159;SDS011;9205;52.032;4.314;2022-12-18T09:57:22;15.87;;;6.60;;
18159;SDS011;9205;52.032;4.314;2022-12-18T09:59:54;16.00;;;6.50;;
18159;SDS011;9205;52.032;4.314;2022-12-18T10:02:38;14.77;;;6.30;;
18159;SDS011;9205;52.032;4.314;2022-12-18T10:05:06;12.87;;;6.33;;
18159;SDS011;9205;52.032;4.314;2022-12-18T10:07:44;12.10;;;7.17;;
18159;SDS011;9205;52.032;4.314;2022-12-18T10:10:30;16.10;;;7.30;;
18159;SDS011;9205;52.032;4.314;2022-12-18T10:13:12;12.47;;;6.20;;
18159;SDS011;9205;52.032;4.314;2022-12-18T10:15:54;16.10;;;5.87;;
18159;SDS011;9205;52.032;4.314;2022-12-18T10:18:50;17.93;;;7.47;;
18159;SDS011;9205;52.032;4.314;2022-12-18T10:21:42;15.30;;;6.73;;
18159;SDS011;9205;52.032;4.314;2022-12-18T10:24:22;12.10;;;6.47;;
18159;SDS011;9205;52.032;4.314;2022-12-18T10:27:08;14.57;;;6.63;;
18159;SDS011;9205;52.032;4.314;2022-12-18T10:29:44;12.37;;;6.53;;
18159;SDS011;9205;52.032;4.314;2022-12-18T10:32:16;17.00;;;6.80;;
18159;SDS011;9205;52.032;4.314;2022-12-18T10:34:55;14.90;;;6.23;;
18159;SDS011;9205;52.032;4.314;2022-12-18T10:37:26;10.37;;;5.73;;
18159;SDS011;9205;52.032;4.314;2022-12-18T10:40:08;13.20;;;6.07;;
18159;SDS011;9205;52.032;4.314;2022-12-18T10:43:17;11.30;;;5.47;;
18159;SDS011;9205;52.032;4.314;2022-12-18T10:46:01;12.30;;;5.40;;
18159;SDS011;9205;52.032;4.314;2022-12-18T10:48:40;15.33;;;6.33;;
18159;SDS011;9205;52.032;4.314;2022-12-18T10:51:24;11.87;;;5.97;;
18159;SDS011;9205;52.032;4.314;2022-12-18T10:53:57;15.27;;;5.60;;
18159;SDS011;9205;52.032;4.314;2022-12-18T10:56:31;13.87;;;5.80;;
18159;SDS011;9205;52.032;4.314;2022-12-18T10:59:05;16.37;;;7.13;;
18159;SDS011;9205;52.032;4.314;2022-12-18T11:01:47;13.10;;;5.97;;
18159;SDS011;9205;52.032;4.314;2022-12-18T11:04:49;12.23;;;6.03;;
18159;SDS011;9205;52.032;4.314;2022-12-18T11:07:22;11.23;;;5.20;;
18159;SDS011;9205;52.032;4.314;2022-12-18T11:09:59;15.67;;;7.20;;
18159;SDS011;9205;52.032;4.314;2022-12-18T11:12:28;14.83;;;6.40;;
18159;SDS011;9205;52.032;4.314;2022-12-18T11:14:56;13.40;;;6.23;;
18159;SDS011;9205;52.032;4.314;2022-12-18T11:17:43;11.10;;;6.20;;
18159;SDS011;9205;52.032;4.314;2022-12-18T11:20:23;15.37;;;7.40;;
18159;SDS011;9205;52.032;4.314;2022-12-18T11:23:03;18.23;;;6.40;;
18159;SDS011;9205;52.032;4.314;2022-12-18T11:25:39;12.53;;;5.43;;
18159;SDS011;9205;52.032;4.314;2022-12-18T11:28:36;12.47;;;6.07;;
18159;SDS011;9205;52.032;4.314;2022-12-18T11:31:50;11.83;;;6.17;;
18159;SDS011;9205;52.032;4.314;2022-12-18T11:34:20;11.93;;;5.13;;
18159;SDS011;9205;52.032;4.314;2022-12-18T11:37:10;13.83;;;6.37;;
18159;SDS011;9205;52.032;4.314;2022-12-18T11:39:46;12.50;;;6.10;;
18159;SDS011;9205;52.032;4.314;2022-12-18T11:42:22;14.73;;;6.13;;
18159;SDS011;9205;52.032;4.314;2022-12-18T11:45:21;12.20;;;5.27;;
18159;SDS011;9205;52.032;4.314;2022-12-18T11:48:06;13.33;;;6.23;;
18159;SDS011;9205;52.032;4.314;2022-12-18T11:50:48;14.00;;;6.17;;
18159;SDS011;9205;52.032;4.314;2022-12-18T11:53:37;14.17;;;6.87;;
18159;SDS011;9205;52.032;4.314;2022-12-18T11:57:16;9.80;;;5.07;;
18159;SDS011;9205;52.032;4.314;2022-12-18T12:00:07;14.63;;;5.53;;
18159;SDS011;9205;52.032;4.314;2022-12-18T12:06:08;13.60;;;6.30;;
18159;SDS011;9205;52.032;4.314;2022-12-18T12:09:01;8.47;;;5.10;;
18159;SDS011;9205;52.032;4.314;2022-12-18T12:11:47;14.07;;;5.53;;
18159;SDS011;9205;52.032;4.314;2022-12-18T12:14:39;7.70;;;5.20;;
18159;SDS011;9205;52.032;4.314;2022-12-18T12:17:24;16.50;;;6.63;;
18159;SDS011;9205;52.032;4.314;2022-12-18T12:20:06;15.17;;;6.83;;
18159;SDS011;9205;52.032;4.314;2022-12-18T12:22:48;11.53;;;5.60;;
18159;SDS011;9205;52.032;4.314;2022-12-18T12:25:29;15.17;;;5.67;;
18159;SDS011;9205;52.032;4.314;2022-12-18T12:28:13;15.37;;;5.87;;
18159;SDS011;9205;52.032;4.314;2022-12-18T12:30:55;16.27;;;5.67;;
18159;SDS011;9205;52.032;4.314;2022-12-18T12:33:43;11.03;;;6.07;;
18159;SDS011;9205;52.032;4.314;2022-12-18T12:36:26;15.73;;;6.13;;
18159;SDS011;9205;52.032;4.314;2022-12-18T12:39:06;12.40;;;6.23;;
18159;SDS011;9205;52.032;4.314;2022-12-18T12:41:41;13.67;;;6.10;;
18159;SDS011;9205;52.032;4.314;2022-12-18T12:44:27;15.10;;;7.13;;
18159;SDS011;9205;52.032;4.314;2022-12-18T12:47:10;14.77;;;6.00;;
18159;SDS011;9205;52.032;4.314;2022-12-18T12:49:44;12.13;;;5.33;;
18159;SDS011;9205;52.032;4.314;2022-12-18T12:52:24;16.07;;;6.23;;
18159;SDS011;9205;52.032;4.314;2022-12-18T12:54:59;12.40;;;5.73;;
18159;SDS011;9205;52.032;4.314;2022-12-18T12:57:39;18.23;;;6.43;;
18159;SDS011;9205;52.032;4.314;2022-12-18T13:00:26;11.07;;;5.27;;
18159;SDS011;9205;52.032;4.314;2022-12-18T13:03:06;10.00;;;5.90;;
18159;SDS011;9205;52.032;4.314;2022-12-18T13:06:02;14.57;;;5.67;;
18159;SDS011;9205;52.032;4.314;2022-12-18T13:08:53;15.53;;;5.67;;
18159;SDS011;9205;52.032;4.314;2022-12-18T13:11:37;12.97;;;5.90;;
18159;SDS011;9205;52.032;4.314;2022-12-18T13:14:30;13.40;;;5.67;;
18159;SDS011;9205;52.032;4.314;2022-12-18T13:20:12;13.03;;;6.00;;
18159;SDS011;9205;52.032;4.314;2022-12-18T13:22:45;11.70;;;5.83;;
18159;SDS011;9205;52.032;4.314;2022-12-18T13:25:33;10.70;;;5.57;;
18159;SDS011;9205;52.032;4.314;2022-12-18T13:28:05;13.53;;;6.33;;
18159;SDS011;9205;52.032;4.314;2022-12-18T13:30:53;9.90;;;5.13;;
18159;SDS011;9205;52.032;4.314;2022-12-18T13:36:31;17.27;;;6.50;;
18159;SDS011;9205;52.032;4.314;2022-12-18T13:39:24;10.47;;;5.93;;
18159;SDS011;9205;52.032;4.314;2022-12-18T13:45:35;11.67;;;5.63;;
18159;SDS011;9205;52.032;4.314;2022-12-18T13:48:19;11.97;;;5.83;;
18159;SDS011;9205;52.032;4.314;2022-12-18T13:51:25;14.83;;;6.03;;
18159;SDS011;9205;52.032;4.314;2022-12-18T13:57:31;11.17;;;4.93;;
18159;SDS011;9205;52.032;4.314;2022-12-18T14:00:43;14.27;;;5.27;;
18159;SDS011;9205;52.032;4.314;2022-12-18T14:03:29;9.73;;;5.17;;
18159;SDS011;9205;52.032;4.314;2022-12-18T14:06:03;10.23;;;5.10;;
18159;SDS011;9205;52.032;4.314;2022-12-18T14:08:37;10.40;;;5.90;;
18159;SDS011;9205;52.032;4.314;2022-12-18T14:11:11;13.67;;;5.33;;
18159;SDS011;9205;52.032;4.314;2022-12-18T14:13:51;11.40;;;5.67;;
18159;SDS011;9205;52.032;4.314;2022-12-18T14:16:36;9.50;;;4.70;;
18159;SDS011;9205;52.032;4.314;2022-12-18T14:19:14;12.43;;;5.77;;
18159;SDS011;9205;52.032;4.314;2022-12-18T14:22:15;10.70;;;5.03;;
18159;SDS011;9205;52.032;4.314;2022-12-18T14:25:04;10.83;;;5.53;;
18159;SDS011;9205;52.032;4.314;2022-12-18T14:27:46;11.83;;;4.60;;
18159;SDS011;9205;52.032;4.314;2022-12-18T14:32:05;13.33;;;5.57;;
18159;SDS011;9205;52.032;4.314;2022-12-18T14:34:39;9.27;;;5.60;;
18159;SDS011;9205;52.032;4.314;2022-12-18T14:37:09;11.40;;;6.77;;
18159;SDS011;9205;52.032;4.314;2022-12-18T14:39:39;13.70;;;5.93;;
18159;SDS011;9205;52.032;4.314;2022-12-18T14:42:18;13.13;;;6.20;;
18159;SDS011;9205;52.032;4.314;2022-12-18T14:44:48;13.83;;;5.93;;
18159;SDS011;9205;52.032;4.314;2022-12-18T14:47:20;12.10;;;5.70;;
18159;SDS011;9205;52.032;4.314;2022-12-18T14:50:02;11.57;;;5.70;;
18159;SDS011;9205;52.032;4.314;2022-12-18T14:52:32;11.27;;;6.50;;
18159;SDS011;9205;52.032;4.314;2022-12-18T14:55:04;15.93;;;5.97;;
18159;SDS011;9205;52.032;4.314;2022-12-18T14:57:43;15.23;;;5.97;;
18159;SDS011;9205;52.032;4.314;2022-12-18T15:00:20;12.13;;;5.73;;
18159;SDS011;9205;52.032;4.314;2022-12-18T15:03:18;14.30;;;5.47;;
18159;SDS011;9205;52.032;4.314;2022-12-18T15:06:16;16.83;;;7.03;;
18159;SDS011;9205;52.032;4.314;2022-12-18T15:08:54;11.23;;;5.57;;
18159;SDS011;9205;52.032;4.314;2022-12-18T15:11:55;13.47;;;5.97;;
18159;SDS011;9205;52.032;4.314;2022-12-18T15:18:14;11.63;;;5.40;;
18159;SDS011;9205;52.032;4.314;2022-12-18T15:21:09;15.10;;;5.60;;
18159;SDS011;9205;52.032;4.314;2022-12-18T15:24:02;11.97;;;6.10;;
18159;SDS011;9205;52.032;4.314;2022-12-18T15:26:32;12.90;;;5.83;;
18159;SDS011;9205;52.032;4.314;2022-12-18T15:29:04;11.73;;;5.47;;
18159;SDS011;9205;52.032;4.314;2022-12-18T15:31:34;13.17;;;6.03;;
18159;SDS011;9205;52.032;4.314;2022-12-18T15:34:11;17.63;;;5.90;;
18159;SDS011;9205;52.032;4.314;2022-12-18T15:36:54;12.23;;;6.67;;
18159;SDS011;9205;52.032;4.314;2022-12-18T15:39:22;12.50;;;6.10;;
18159;SDS011;9205;52.032;4.314;2022-12-18T15:41:55;14.17;;;6.30;;
18159;SDS011;9205;52.032;4.314;2022-12-18T15:44:42;13.77;;;6.43;;
18159;SDS011;9205;52.032;4.314;2022-12-18T15:47:15;15.50;;;6.50;;
18159;SDS011;9205;52.032;4.314;2022-12-18T15:49:51;13.40;;;6.60;;
18159;SDS011;9205;52.032;4.314;2022-12-18T15:52:19;20.97;;;7.73;;
18159;SDS011;9205;52.032;4.314;2022-12-18T15:54:54;18.53;;;6.93;;